Terminal Aerodrome Forecast
Issued by NWS Sterling, VA

Home | Current Version | Previous Version | Text Only | Print | Product List | Glossary On
Versions: 1 2 3 4 5 6 7 8 9 10 11 12 13 14 15 16 17 18
000
FTUS41 KLWX 281700
TAFCHO
TAF
KCHO 281730Z 2818/2918 31008G16KT P6SM SKC
     FM282300 VRB03KT P6SM SKC
     FM291200 00000KT P6SM SCT080 BKN100
     FM291500 18006KT P6SM SCT060 BKN090=

USA.gov is the U.S. government's official web portal to all federal, state and local government web resources and services.